Hancock, Wisconsin
Current Conditions -  °F | °C
As of 10:58 AM on Thursday 23 Oct 2014 (Local Time) from KY50 Reporting Station
Heavy Rain Heavy Rain  
Wind Chill: 45°   Ceiling: 1100
Heat Index: 45°   Visibility: 0.75mi
Dew Point: 43°   Wind: 0mph
Humidity: 93%   Direction: NA
Pressure: 30.12"   Gusts: NA
Location:  44.13°N, 89.52°W
Report Text: KY50 231558Z AUTO 00000KT 3/4SM +RA BR SCT001 BKN011 OVC039 07/06 A3012 RMK AO2 TSNO BKN V SCT P0000
Loading
Personal Weather Stations






























Interactive Weather Map
Tropical Storm Tracking
New forecast layout! Learn more

10-Day Weather Forecast

Advertisements
Track Severe Weather on mobile